CES126 ZYTX-ZSSS
Flight info
| Callsign | CES126 |
|---|---|
| Flight time | 2h 12m |
| Altitude | 34100 |
| Route | TOS71D TOSID A588 UDETI W106 MAKNO W5 TAO W174 XDX DCT MABEB DCT GURIL DCT RUXEL W178 OSIKI W166 ZJ W167 SASAN R343 PK |
| Aircraft | A321/M-SDE3FGHIRWY/LB1 |
Departure
| Time | 2026-04-23 05:25 |
|---|---|
| Airport | Shenyang Taoxian International Airport (ZYTX) |
Arrival
| Time | 2026-04-23 07:37 |
|---|---|
| Airport | Shanghai Hongqiao International Airport (ZSSS) |
| Time | Latitude | Longitude | Altitude | Speed | Heading |
|---|---|---|---|---|---|
| 2026-04-23 04:26 | 41.63936 | 123.48946 | 206 ft | 0 kts | 140° |
| 2026-04-23 05:15 | 41.63939 | 123.48942 | 206 ft | 2 kts | 140° |
| 2026-04-23 05:15 | 41.63951 | 123.48929 | 206 ft | 2 kts | 139° |
| 2026-04-23 05:15 | 41.63958 | 123.48921 | 206 ft | 2 kts | 139° |
| 2026-04-23 05:16 | 41.63967 | 123.48906 | 206 ft | 2 kts | 121° |
| 2026-04-23 05:16 | 41.63975 | 123.48888 | 206 ft | 2 kts | 110° |
| 2026-04-23 05:16 | 41.63979 | 123.48870 | 206 ft | 2 kts | 98° |
| 2026-04-23 05:16 | 41.63979 | 123.48850 | 206 ft | 2 kts | 85° |
| 2026-04-23 05:17 | 41.63977 | 123.48830 | 206 ft | 2 kts | 73° |
| 2026-04-23 05:17 | 41.63971 | 123.48812 | 206 ft | 2 kts | 60° |
| 2026-04-23 05:17 | 41.63965 | 123.48798 | 206 ft | 0 kts | 50° |
| 2026-04-23 05:17 | 41.63960 | 123.48792 | 206 ft | 0 kts | 48° |
| 2026-04-23 05:19 | 41.63971 | 123.48808 | 206 ft | 9 kts | 51° |
| 2026-04-23 05:19 | 41.64052 | 123.48925 | 206 ft | 20 kts | 33° |
| 2026-04-23 05:19 | 41.64139 | 123.49043 | 206 ft | 15 kts | 53° |
| 2026-04-23 05:19 | 41.64176 | 123.49090 | 206 ft | 3 kts | 61° |
| 2026-04-23 05:20 | 41.64189 | 123.49129 | 206 ft | 5 kts | 55° |
| 2026-04-23 05:20 | 41.64220 | 123.49188 | 206 ft | 12 kts | 52° |
| 2026-04-23 05:20 | 41.64304 | 123.49307 | 206 ft | 21 kts | 50° |
| 2026-04-23 05:20 | 41.64387 | 123.49346 | 206 ft | 9 kts | 350° |
| 2026-04-23 05:21 | 41.64434 | 123.49386 | 206 ft | 8 kts | 50° |
| 2026-04-23 05:21 | 41.64482 | 123.49438 | 206 ft | 9 kts | 51° |
| 2026-04-23 05:21 | 41.64521 | 123.49501 | 206 ft | 8 kts | 50° |
| 2026-04-23 05:21 | 41.64566 | 123.49563 | 206 ft | 9 kts | 45° |
| 2026-04-23 05:22 | 41.64611 | 123.49630 | 206 ft | 9 kts | 47° |
| 2026-04-23 05:22 | 41.64643 | 123.49673 | 206 ft | 4 kts | 45° |
| 2026-04-23 05:22 | 41.64674 | 123.49718 | 206 ft | 11 kts | 47° |
| 2026-04-23 05:22 | 41.64748 | 123.49829 | 206 ft | 18 kts | 48° |
| 2026-04-23 05:23 | 41.64843 | 123.49882 | 206 ft | 14 kts | 337° |
| 2026-04-23 05:23 | 41.64910 | 123.49809 | 206 ft | 10 kts | 294° |
| 2026-04-23 05:23 | 41.64910 | 123.49724 | 206 ft | 9 kts | 245° |
| 2026-04-23 05:23 | 41.64872 | 123.49660 | 206 ft | 8 kts | 226° |
| 2026-04-23 05:24 | 41.64828 | 123.49599 | 206 ft | 9 kts | 226° |
| 2026-04-23 05:24 | 41.64814 | 123.49578 | 206 ft | 0 kts | 228° |
| 2026-04-23 05:24 | 41.64809 | 123.49571 | 206 ft | 1 kts | 228° |
| 2026-04-23 05:24 | 41.64784 | 123.49532 | 206 ft | 20 kts | 228° |
| 2026-04-23 05:25 | 41.64504 | 123.49112 | 206 ft | 98 kts | 227° |
| 2026-04-23 05:25 | 41.63894 | 123.48189 | 206 ft | 162 kts | 227° |
| 2026-04-23 05:25 | 41.63087 | 123.46983 | 590 ft | 181 kts | 227° |
| 2026-04-23 05:25 | 41.62242 | 123.45717 | 1324 ft | 184 kts | 227° |
| 2026-04-23 05:26 | 41.61445 | 123.44490 | 2218 ft | 174 kts | 228° |
| 2026-04-23 05:26 | 41.60714 | 123.43309 | 2810 ft | 166 kts | 227° |
| 2026-04-23 05:26 | 41.59935 | 123.42111 | 3062 ft | 178 kts | 227° |
| 2026-04-23 05:26 | 41.59089 | 123.40832 | 3324 ft | 191 kts | 227° |
| 2026-04-23 05:27 | 41.58175 | 123.39449 | 3595 ft | 205 kts | 227° |
| 2026-04-23 05:27 | 41.57173 | 123.37996 | 3855 ft | 220 kts | 220° |
| 2026-04-23 05:27 | 41.55748 | 123.37109 | 4035 ft | 240 kts | 187° |
| 2026-04-23 05:27 | 41.54064 | 123.37086 | 4505 ft | 249 kts | 179° |
| 2026-04-23 05:28 | 41.52287 | 123.37137 | 4913 ft | 262 kts | 180° |
| 2026-04-23 05:28 | 41.50429 | 123.37163 | 5555 ft | 266 kts | 180° |
| 2026-04-23 05:28 | 41.48591 | 123.37172 | 6251 ft | 268 kts | 181° |
| 2026-04-23 05:28 | 41.46728 | 123.37172 | 6926 ft | 271 kts | 181° |
| 2026-04-23 05:29 | 41.44830 | 123.37170 | 7592 ft | 275 kts | 181° |
| 2026-04-23 05:29 | 41.42925 | 123.37167 | 8242 ft | 278 kts | 182° |
| 2026-04-23 05:29 | 41.40971 | 123.37167 | 8873 ft | 283 kts | 181° |
| 2026-04-23 05:29 | 41.39015 | 123.37509 | 9462 ft | 290 kts | 167° |
| 2026-04-23 05:30 | 41.37101 | 123.38491 | 10061 ft | 297 kts | 156° |
| 2026-04-23 05:30 | 41.35245 | 123.39739 | 10460 ft | 309 kts | 154° |
| 2026-04-23 05:30 | 41.33304 | 123.41090 | 10744 ft | 324 kts | 154° |
| 2026-04-23 05:30 | 41.31259 | 123.42509 | 11022 ft | 339 kts | 154° |
| 2026-04-23 05:31 | 41.29107 | 123.43993 | 11290 ft | 354 kts | 154° |
| 2026-04-23 05:31 | 41.26876 | 123.45521 | 11550 ft | 369 kts | 154° |
| 2026-04-23 05:31 | 41.24550 | 123.47109 | 11803 ft | 382 kts | 154° |
| 2026-04-23 05:31 | 41.22144 | 123.48747 | 12094 ft | 394 kts | 154° |
| 2026-04-23 05:32 | 41.19701 | 123.50407 | 12581 ft | 400 kts | 154° |
| 2026-04-23 05:32 | 41.17216 | 123.52096 | 13138 ft | 403 kts | 154° |
| 2026-04-23 05:32 | 41.14713 | 123.53796 | 13664 ft | 407 kts | 154° |
| 2026-04-23 05:32 | 41.12159 | 123.55526 | 14178 ft | 411 kts | 154° |
| 2026-04-23 05:33 | 41.09617 | 123.57246 | 14686 ft | 415 kts | 154° |
| 2026-04-23 05:33 | 41.07039 | 123.58988 | 15178 ft | 418 kts | 153° |
| 2026-04-23 05:33 | 41.04457 | 123.60735 | 15656 ft | 422 kts | 153° |
| 2026-04-23 05:33 | 41.01827 | 123.62511 | 16147 ft | 425 kts | 153° |
| 2026-04-23 05:34 | 40.99204 | 123.64283 | 16597 ft | 429 kts | 153° |
| 2026-04-23 05:34 | 40.96534 | 123.66082 | 17032 ft | 432 kts | 154° |
| 2026-04-23 05:34 | 40.93827 | 123.67904 | 17482 ft | 435 kts | 154° |
| 2026-04-23 05:34 | 40.91069 | 123.69495 | 17890 ft | 438 kts | 165° |
| 2026-04-23 05:35 | 40.88060 | 123.69898 | 18269 ft | 436 kts | 186° |
| 2026-04-23 05:35 | 40.85130 | 123.68948 | 18709 ft | 431 kts | 206° |
| 2026-04-23 05:35 | 40.82475 | 123.67102 | 19175 ft | 430 kts | 213° |
| 2026-04-23 05:35 | 40.79821 | 123.65216 | 19558 ft | 435 kts | 209° |
| 2026-04-23 05:36 | 40.77042 | 123.63611 | 19961 ft | 440 kts | 204° |
| 2026-04-23 05:36 | 40.74144 | 123.62307 | 20386 ft | 444 kts | 199° |
| 2026-04-23 05:36 | 40.71169 | 123.61212 | 20809 ft | 446 kts | 198° |
| 2026-04-23 05:36 | 40.68177 | 123.60155 | 21204 ft | 448 kts | 198° |
| 2026-04-23 05:37 | 40.65158 | 123.59094 | 21595 ft | 450 kts | 198° |
| 2026-04-23 05:37 | 40.62113 | 123.58009 | 21957 ft | 452 kts | 199° |
| 2026-04-23 05:37 | 40.59114 | 123.56702 | 22307 ft | 453 kts | 204° |
| 2026-04-23 05:37 | 40.56237 | 123.55106 | 22659 ft | 453 kts | 208° |
| 2026-04-23 05:38 | 40.53458 | 123.53220 | 22991 ft | 453 kts | 212° |
| 2026-04-23 05:38 | 40.50682 | 123.51200 | 23316 ft | 456 kts | 213° |
| 2026-04-23 05:38 | 40.47929 | 123.49178 | 23626 ft | 458 kts | 213° |
| 2026-04-23 05:38 | 40.45124 | 123.47118 | 23928 ft | 461 kts | 213° |
| 2026-04-23 05:39 | 40.42310 | 123.45058 | 24242 ft | 462 kts | 213° |
| 2026-04-23 05:39 | 40.39527 | 123.43030 | 24584 ft | 463 kts | 213° |
| 2026-04-23 05:39 | 40.36709 | 123.40977 | 24919 ft | 464 kts | 212° |
| 2026-04-23 05:39 | 40.33872 | 123.38915 | 25231 ft | 466 kts | 212° |
| 2026-04-23 05:40 | 40.31035 | 123.36859 | 25591 ft | 466 kts | 212° |
| 2026-04-23 05:40 | 40.28208 | 123.34807 | 26068 ft | 462 kts | 212° |
| 2026-04-23 05:40 | 40.25434 | 123.32800 | 26561 ft | 459 kts | 212° |
| 2026-04-23 05:40 | 40.22631 | 123.30776 | 26951 ft | 458 kts | 212° |
| 2026-04-23 05:41 | 40.19850 | 123.28766 | 27341 ft | 457 kts | 212° |
| 2026-04-23 05:41 | 40.17057 | 123.26751 | 27756 ft | 455 kts | 212° |
| 2026-04-23 05:41 | 40.14306 | 123.24769 | 28142 ft | 454 kts | 212° |
| 2026-04-23 05:41 | 40.11571 | 123.22797 | 28555 ft | 452 kts | 212° |
| 2026-04-23 05:42 | 40.08802 | 123.20802 | 28974 ft | 449 kts | 212° |
| 2026-04-23 05:42 | 40.06087 | 123.18850 | 29388 ft | 447 kts | 212° |
| 2026-04-23 05:42 | 40.03397 | 123.16914 | 29813 ft | 444 kts | 212° |
| 2026-04-23 05:42 | 40.00686 | 123.14951 | 30177 ft | 442 kts | 213° |
| 2026-04-23 05:43 | 39.98035 | 123.13026 | 30533 ft | 440 kts | 213° |
| 2026-04-23 05:43 | 39.95352 | 123.11080 | 30866 ft | 438 kts | 212° |
| 2026-04-23 05:43 | 39.92725 | 123.09178 | 31154 ft | 437 kts | 213° |
| 2026-04-23 05:43 | 39.90045 | 123.07244 | 31437 ft | 436 kts | 213° |
| 2026-04-23 05:44 | 39.87415 | 123.05345 | 31759 ft | 434 kts | 213° |
| 2026-04-23 05:44 | 39.84784 | 123.03439 | 32023 ft | 433 kts | 213° |
| 2026-04-23 05:44 | 39.82153 | 123.01529 | 32261 ft | 432 kts | 213° |
| 2026-04-23 05:44 | 39.79517 | 122.99618 | 32501 ft | 432 kts | 213° |
| 2026-04-23 05:45 | 39.76925 | 122.97741 | 32714 ft | 432 kts | 213° |
| 2026-04-23 05:45 | 39.74304 | 122.95843 | 32919 ft | 432 kts | 213° |
| 2026-04-23 05:45 | 39.71662 | 122.93934 | 33098 ft | 432 kts | 213° |
| 2026-04-23 05:45 | 39.69057 | 122.92052 | 33303 ft | 432 kts | 213° |
| 2026-04-23 05:46 | 39.66410 | 122.90142 | 33520 ft | 432 kts | 213° |
| 2026-04-23 05:46 | 39.63802 | 122.88263 | 33690 ft | 431 kts | 213° |
| 2026-04-23 05:46 | 39.61184 | 122.86377 | 33894 ft | 431 kts | 213° |
| 2026-04-23 05:46 | 39.58587 | 122.84508 | 34021 ft | 431 kts | 213° |
| 2026-04-23 05:47 | 39.55959 | 122.82619 | 34026 ft | 431 kts | 213° |
| 2026-04-23 05:47 | 39.50709 | 122.78846 | 34017 ft | 431 kts | 213° |
| 2026-04-23 05:48 | 39.45454 | 122.75080 | 34033 ft | 431 kts | 213° |
| 2026-04-23 05:48 | 39.40250 | 122.71358 | 34038 ft | 429 kts | 213° |
| 2026-04-23 05:49 | 39.35046 | 122.67638 | 34041 ft | 428 kts | 213° |
| 2026-04-23 05:49 | 39.29836 | 122.63924 | 34040 ft | 428 kts | 213° |
| 2026-04-23 05:50 | 39.24697 | 122.60083 | 34050 ft | 425 kts | 216° |
| 2026-04-23 05:50 | 39.19682 | 122.56068 | 34043 ft | 424 kts | 216° |
| 2026-04-23 05:51 | 39.14679 | 122.52077 | 34049 ft | 423 kts | 216° |
| 2026-04-23 05:51 | 39.09690 | 122.48096 | 34041 ft | 423 kts | 216° |
| 2026-04-23 05:52 | 39.04722 | 122.44138 | 34045 ft | 420 kts | 216° |
| 2026-04-23 05:52 | 38.99761 | 122.40191 | 34049 ft | 420 kts | 216° |
| 2026-04-23 05:53 | 38.94805 | 122.36255 | 34056 ft | 420 kts | 216° |
| 2026-04-23 05:53 | 38.89803 | 122.32292 | 34060 ft | 419 kts | 215° |
| 2026-04-23 05:54 | 38.84818 | 122.28346 | 34057 ft | 419 kts | 215° |
| 2026-04-23 05:54 | 38.79852 | 122.24421 | 34061 ft | 419 kts | 215° |
| 2026-04-23 05:55 | 38.75046 | 122.20265 | 34056 ft | 415 kts | 222° |
| 2026-04-23 05:55 | 38.71037 | 122.15015 | 34066 ft | 411 kts | 233° |
| 2026-04-23 05:56 | 38.68008 | 122.08807 | 34076 ft | 411 kts | 245° |
| 2026-04-23 05:56 | 38.66061 | 122.01977 | 34084 ft | 411 kts | 253° |
| 2026-04-23 05:57 | 38.64485 | 121.94955 | 34090 ft | 411 kts | 254° |
| 2026-04-23 05:57 | 38.62923 | 121.87940 | 34090 ft | 412 kts | 253° |
| 2026-04-23 05:58 | 38.61355 | 121.80914 | 34085 ft | 412 kts | 253° |
| 2026-04-23 05:58 | 38.59775 | 121.73873 | 34079 ft | 413 kts | 254° |
| 2026-04-23 05:59 | 38.58188 | 121.66815 | 34079 ft | 414 kts | 253° |
| 2026-04-23 05:59 | 38.56597 | 121.59773 | 34074 ft | 415 kts | 253° |
| 2026-04-23 06:00 | 38.55000 | 121.52718 | 34068 ft | 415 kts | 254° |
| 2026-04-23 06:00 | 38.53392 | 121.45641 | 34062 ft | 416 kts | 253° |
| 2026-04-23 06:01 | 38.51777 | 121.38551 | 34071 ft | 417 kts | 254° |
| 2026-04-23 06:01 | 38.50155 | 121.31460 | 34069 ft | 417 kts | 253° |
| 2026-04-23 06:02 | 38.48533 | 121.24382 | 34070 ft | 417 kts | 253° |
| 2026-04-23 06:02 | 38.46617 | 121.17454 | 34060 ft | 417 kts | 248° |
| 2026-04-23 06:03 | 38.44143 | 121.10764 | 34062 ft | 417 kts | 243° |
| 2026-04-23 06:03 | 38.41184 | 121.04438 | 34065 ft | 418 kts | 239° |
| 2026-04-23 06:04 | 38.38083 | 120.98132 | 34063 ft | 418 kts | 239° |
| 2026-04-23 06:04 | 38.34987 | 120.91853 | 34062 ft | 418 kts | 239° |
| 2026-04-23 06:05 | 38.31903 | 120.85622 | 34071 ft | 419 kts | 239° |
| 2026-04-23 06:05 | 38.28690 | 120.79464 | 34064 ft | 420 kts | 234° |
| 2026-04-23 06:06 | 38.24769 | 120.73926 | 34070 ft | 422 kts | 226° |
| 2026-04-23 06:06 | 38.20197 | 120.69263 | 34056 ft | 426 kts | 217° |
| 2026-04-23 06:07 | 38.15038 | 120.65551 | 34060 ft | 428 kts | 210° |
| 2026-04-23 06:07 | 38.09698 | 120.62218 | 34057 ft | 429 kts | 208° |
| 2026-04-23 06:08 | 38.04104 | 120.59441 | 34053 ft | 432 kts | 201° |
| 2026-04-23 06:08 | 37.98280 | 120.57534 | 34064 ft | 435 kts | 195° |
| 2026-04-23 06:09 | 37.92284 | 120.56519 | 34045 ft | 437 kts | 189° |
| 2026-04-23 06:09 | 37.86206 | 120.56054 | 34060 ft | 438 kts | 188° |
| 2026-04-23 06:10 | 37.80135 | 120.55598 | 34058 ft | 438 kts | 188° |
| 2026-04-23 06:10 | 37.74032 | 120.55132 | 34048 ft | 438 kts | 188° |
| 2026-04-23 06:11 | 37.67958 | 120.54672 | 34049 ft | 438 kts | 188° |
| 2026-04-23 06:11 | 37.61927 | 120.53945 | 34054 ft | 435 kts | 192° |
| 2026-04-23 06:12 | 37.55947 | 120.53049 | 34063 ft | 436 kts | 192° |
| 2026-04-23 06:12 | 37.46895 | 120.51698 | 34068 ft | 436 kts | 192° |
| 2026-04-23 06:13 | 37.40872 | 120.50800 | 34078 ft | 435 kts | 192° |
| 2026-04-23 06:13 | 37.34886 | 120.49909 | 34055 ft | 435 kts | 192° |
| 2026-04-23 06:14 | 37.28869 | 120.49013 | 34062 ft | 435 kts | 192° |
| 2026-04-23 06:14 | 37.22848 | 120.48118 | 34061 ft | 435 kts | 192° |
| 2026-04-23 06:15 | 37.16855 | 120.47231 | 34044 ft | 435 kts | 192° |
| 2026-04-23 06:15 | 37.10875 | 120.46345 | 34042 ft | 435 kts | 192° |
| 2026-04-23 06:16 | 37.04879 | 120.45460 | 34047 ft | 434 kts | 192° |
| 2026-04-23 06:16 | 36.98865 | 120.44572 | 34050 ft | 434 kts | 192° |
| 2026-04-23 06:17 | 36.92883 | 120.43690 | 34048 ft | 434 kts | 192° |
| 2026-04-23 06:17 | 36.86880 | 120.42808 | 34050 ft | 434 kts | 192° |
| 2026-04-23 06:18 | 36.80870 | 120.41927 | 34052 ft | 433 kts | 193° |
| 2026-04-23 06:18 | 36.74907 | 120.41053 | 34042 ft | 433 kts | 193° |
| 2026-04-23 06:19 | 36.68916 | 120.40176 | 34044 ft | 433 kts | 193° |
| 2026-04-23 06:19 | 36.62913 | 120.39298 | 34047 ft | 433 kts | 193° |
| 2026-04-23 06:20 | 36.56964 | 120.38432 | 34050 ft | 432 kts | 193° |
| 2026-04-23 06:20 | 36.50976 | 120.37804 | 34045 ft | 435 kts | 188° |
| 2026-04-23 06:21 | 36.44907 | 120.37579 | 34050 ft | 435 kts | 188° |
| 2026-04-23 06:21 | 36.38866 | 120.37354 | 34049 ft | 435 kts | 188° |
| 2026-04-23 06:22 | 36.32811 | 120.37120 | 34054 ft | 433 kts | 190° |
| 2026-04-23 06:22 | 36.26866 | 120.36369 | 34060 ft | 428 kts | 195° |
| 2026-04-23 06:23 | 36.21021 | 120.34954 | 34055 ft | 425 kts | 198° |
| 2026-04-23 06:23 | 36.15232 | 120.33470 | 34060 ft | 425 kts | 198° |
| 2026-04-23 06:24 | 36.09443 | 120.31979 | 34054 ft | 425 kts | 198° |
| 2026-04-23 06:24 | 36.03730 | 120.30236 | 34048 ft | 420 kts | 204° |
| 2026-04-23 06:25 | 35.98338 | 120.27581 | 34044 ft | 414 kts | 211° |
| 2026-04-23 06:25 | 35.93382 | 120.24075 | 34044 ft | 408 kts | 219° |
| 2026-04-23 06:26 | 35.88922 | 120.19862 | 34059 ft | 403 kts | 224° |
| 2026-04-23 06:26 | 35.84586 | 120.15452 | 34061 ft | 403 kts | 224° |
| 2026-04-23 06:27 | 35.80272 | 120.11057 | 34053 ft | 405 kts | 224° |
| 2026-04-23 06:27 | 35.75943 | 120.06654 | 34053 ft | 404 kts | 224° |
| 2026-04-23 06:28 | 35.71611 | 120.02251 | 34054 ft | 403 kts | 224° |
| 2026-04-23 06:28 | 35.67303 | 119.97879 | 34056 ft | 402 kts | 224° |
| 2026-04-23 06:29 | 35.62970 | 119.93485 | 34060 ft | 402 kts | 224° |
| 2026-04-23 06:29 | 35.58662 | 119.89124 | 34064 ft | 401 kts | 224° |
| 2026-04-23 06:30 | 35.54375 | 119.84790 | 34065 ft | 401 kts | 224° |
| 2026-04-23 06:30 | 35.50057 | 119.80434 | 34061 ft | 401 kts | 224° |
| 2026-04-23 06:31 | 35.45765 | 119.76109 | 34064 ft | 401 kts | 224° |
| 2026-04-23 06:31 | 35.41454 | 119.71737 | 34061 ft | 401 kts | 225° |
| 2026-04-23 06:32 | 35.37191 | 119.67369 | 34061 ft | 401 kts | 225° |
| 2026-04-23 06:32 | 35.32911 | 119.62993 | 34069 ft | 399 kts | 225° |
| 2026-04-23 06:33 | 35.28660 | 119.58653 | 34066 ft | 400 kts | 225° |
| 2026-04-23 06:33 | 35.24369 | 119.54279 | 34070 ft | 399 kts | 225° |
| 2026-04-23 06:34 | 35.20111 | 119.49948 | 34068 ft | 400 kts | 225° |
| 2026-04-23 06:34 | 35.15834 | 119.45602 | 34070 ft | 400 kts | 225° |
| 2026-04-23 06:35 | 35.11573 | 119.41280 | 34071 ft | 399 kts | 225° |
| 2026-04-23 06:35 | 35.07311 | 119.36962 | 34072 ft | 399 kts | 225° |
| 2026-04-23 06:36 | 35.03025 | 119.32627 | 34072 ft | 400 kts | 224° |
| 2026-04-23 06:36 | 34.98721 | 119.28280 | 34070 ft | 399 kts | 225° |
| 2026-04-23 06:37 | 34.94519 | 119.24042 | 34068 ft | 398 kts | 225° |
| 2026-04-23 06:37 | 34.90271 | 119.19762 | 34070 ft | 398 kts | 225° |
| 2026-04-23 06:38 | 34.85982 | 119.15446 | 34069 ft | 398 kts | 225° |
| 2026-04-23 06:38 | 34.81707 | 119.11154 | 34063 ft | 399 kts | 225° |
| 2026-04-23 06:39 | 34.77443 | 119.06874 | 34075 ft | 398 kts | 225° |
| 2026-04-23 06:39 | 34.73185 | 119.02608 | 34068 ft | 397 kts | 225° |
| 2026-04-23 06:40 | 34.68918 | 118.98343 | 34071 ft | 397 kts | 225° |
| 2026-04-23 06:40 | 34.64545 | 118.94224 | 34067 ft | 400 kts | 220° |
| 2026-04-23 06:41 | 34.59707 | 118.90880 | 34072 ft | 405 kts | 213° |
| 2026-04-23 06:41 | 34.54400 | 118.88421 | 34070 ft | 413 kts | 205° |
| 2026-04-23 06:42 | 34.48695 | 118.86958 | 34078 ft | 422 kts | 198° |
| 2026-04-23 06:42 | 34.42912 | 118.85989 | 34080 ft | 422 kts | 197° |
| 2026-04-23 06:43 | 34.37072 | 118.85038 | 34079 ft | 420 kts | 197° |
| 2026-04-23 06:43 | 34.31285 | 118.84098 | 34083 ft | 421 kts | 197° |
| 2026-04-23 06:44 | 34.25483 | 118.83155 | 34081 ft | 420 kts | 197° |
| 2026-04-23 06:44 | 34.19720 | 118.82221 | 34082 ft | 417 kts | 197° |
| 2026-04-23 06:45 | 34.13988 | 118.81297 | 34080 ft | 417 kts | 198° |
| 2026-04-23 06:45 | 34.08226 | 118.80369 | 34083 ft | 418 kts | 198° |
| 2026-04-23 06:46 | 34.02475 | 118.79446 | 34081 ft | 416 kts | 198° |
| 2026-04-23 06:46 | 33.96735 | 118.78534 | 34083 ft | 417 kts | 198° |
| 2026-04-23 06:47 | 33.90979 | 118.77619 | 34091 ft | 417 kts | 198° |
| 2026-04-23 06:47 | 33.85251 | 118.76706 | 34091 ft | 416 kts | 198° |
| 2026-04-23 06:48 | 33.79490 | 118.75780 | 34091 ft | 416 kts | 198° |
| 2026-04-23 06:48 | 33.73770 | 118.74860 | 34092 ft | 416 kts | 198° |
| 2026-04-23 06:49 | 33.68102 | 118.73953 | 34090 ft | 416 kts | 198° |
| 2026-04-23 06:49 | 33.62315 | 118.73028 | 34087 ft | 416 kts | 198° |
| 2026-04-23 06:50 | 33.56599 | 118.72115 | 34089 ft | 416 kts | 198° |
| 2026-04-23 06:50 | 33.50854 | 118.71203 | 34091 ft | 416 kts | 198° |
| 2026-04-23 06:51 | 33.45090 | 118.70281 | 34094 ft | 417 kts | 198° |
| 2026-04-23 06:51 | 33.39330 | 118.69361 | 34090 ft | 418 kts | 198° |
| 2026-04-23 06:52 | 33.33580 | 118.68443 | 34091 ft | 417 kts | 199° |
| 2026-04-23 06:52 | 33.27781 | 118.67824 | 34089 ft | 430 kts | 191° |
| 2026-04-23 06:53 | 33.21704 | 118.68677 | 34090 ft | 449 kts | 178° |
| 2026-04-23 06:53 | 33.15711 | 118.71259 | 34092 ft | 469 kts | 165° |
| 2026-04-23 06:54 | 33.12853 | 118.73233 | 34088 ft | 480 kts | 158° |
| 2026-04-23 06:54 | 33.10098 | 118.75469 | 34092 ft | 484 kts | 156° |
| 2026-04-23 06:54 | 33.04619 | 118.80080 | 34093 ft | 483 kts | 156° |
| 2026-04-23 06:55 | 32.99143 | 118.84662 | 34096 ft | 481 kts | 156° |
| 2026-04-23 06:55 | 32.93620 | 118.89233 | 34099 ft | 482 kts | 156° |
| 2026-04-23 06:56 | 32.88119 | 118.93774 | 34100 ft | 483 kts | 156° |
| 2026-04-23 06:56 | 32.82643 | 118.98290 | 34103 ft | 482 kts | 156° |
| 2026-04-23 06:57 | 32.77099 | 119.02888 | 34105 ft | 483 kts | 155° |
| 2026-04-23 06:57 | 32.71640 | 119.07412 | 34097 ft | 482 kts | 155° |
| 2026-04-23 06:58 | 32.66123 | 119.11985 | 34091 ft | 481 kts | 155° |
| 2026-04-23 06:58 | 32.60649 | 119.16511 | 34089 ft | 480 kts | 155° |
| 2026-04-23 06:59 | 32.55165 | 119.21040 | 34085 ft | 480 kts | 155° |
| 2026-04-23 06:59 | 32.49715 | 119.25530 | 34087 ft | 481 kts | 155° |
| 2026-04-23 07:00 | 32.44242 | 119.30039 | 34090 ft | 479 kts | 155° |
| 2026-04-23 07:00 | 32.38768 | 119.34539 | 34087 ft | 479 kts | 155° |
| 2026-04-23 07:01 | 32.33274 | 119.39047 | 34127 ft | 479 kts | 155° |
| 2026-04-23 07:01 | 32.27819 | 119.43518 | 34090 ft | 478 kts | 155° |
| 2026-04-23 07:02 | 32.22350 | 119.47993 | 34089 ft | 478 kts | 154° |
| 2026-04-23 07:02 | 32.16876 | 119.52467 | 34089 ft | 479 kts | 154° |
| 2026-04-23 07:03 | 32.11411 | 119.56931 | 34080 ft | 476 kts | 154° |
| 2026-04-23 07:03 | 32.05994 | 119.61348 | 34085 ft | 476 kts | 154° |
| 2026-04-23 07:04 | 32.00546 | 119.65782 | 34071 ft | 477 kts | 155° |
| 2026-04-23 07:04 | 31.95181 | 119.70533 | 34074 ft | 487 kts | 146° |
| 2026-04-23 07:05 | 31.90735 | 119.76695 | 34080 ft | 504 kts | 133° |
| 2026-04-23 07:05 | 31.86793 | 119.83606 | 34073 ft | 507 kts | 131° |
| 2026-04-23 07:06 | 31.82912 | 119.90466 | 34071 ft | 505 kts | 131° |
| 2026-04-23 07:06 | 31.78989 | 119.97301 | 34069 ft | 505 kts | 132° |
| 2026-04-23 07:07 | 31.75049 | 120.04127 | 34065 ft | 505 kts | 132° |
| 2026-04-23 07:07 | 31.71116 | 120.10927 | 34060 ft | 504 kts | 132° |
| 2026-04-23 07:08 | 31.67172 | 120.17736 | 34064 ft | 504 kts | 132° |
| 2026-04-23 07:08 | 31.63248 | 120.24495 | 34071 ft | 505 kts | 132° |
| 2026-04-23 07:09 | 31.59410 | 120.31413 | 34068 ft | 512 kts | 126° |
| 2026-04-23 07:09 | 31.56621 | 120.39204 | 34070 ft | 522 kts | 115° |
| 2026-04-23 07:10 | 31.54295 | 120.47235 | 34065 ft | 523 kts | 114° |
| 2026-04-23 07:10 | 31.51944 | 120.55288 | 34071 ft | 523 kts | 115° |
| 2026-04-23 07:11 | 31.49550 | 120.63327 | 34067 ft | 523 kts | 115° |
| 2026-04-23 07:12 | 31.45953 | 120.75317 | 34064 ft | 522 kts | 116° |
| 2026-04-23 07:12 | 31.43540 | 120.83322 | 34065 ft | 523 kts | 116° |
| 2026-04-23 07:13 | 31.41115 | 120.91356 | 34063 ft | 524 kts | 115° |
| 2026-04-23 07:13 | 31.38692 | 120.99364 | 34060 ft | 524 kts | 116° |
| 2026-04-23 07:14 | 31.36259 | 121.07347 | 34063 ft | 524 kts | 116° |
| 2026-04-23 07:14 | 31.33792 | 121.15381 | 34063 ft | 523 kts | 116° |
| 2026-04-23 07:14 | 31.32555 | 121.19351 | 33875 ft | 516 kts | 117° |
| 2026-04-23 07:15 | 31.30999 | 121.22967 | 33245 ft | 487 kts | 134° |
| 2026-04-23 07:15 | 31.28748 | 121.25723 | 32133 ft | 461 kts | 152° |
| 2026-04-23 07:15 | 31.26029 | 121.27450 | 30846 ft | 439 kts | 172° |
| 2026-04-23 07:15 | 31.23127 | 121.28045 | 30335 ft | 412 kts | 186° |
| 2026-04-23 07:16 | 31.20387 | 121.27804 | 29971 ft | 384 kts | 202° |
| 2026-04-23 07:16 | 31.17998 | 121.26664 | 29624 ft | 358 kts | 219° |
| 2026-04-23 07:16 | 31.16152 | 121.24873 | 29288 ft | 340 kts | 233° |
| 2026-04-23 07:16 | 31.14849 | 121.22639 | 28959 ft | 326 kts | 246° |
| 2026-04-23 07:17 | 31.14118 | 121.20195 | 28626 ft | 318 kts | 258° |
| 2026-04-23 07:17 | 31.13933 | 121.17661 | 28303 ft | 313 kts | 270° |
| 2026-04-23 07:17 | 31.14283 | 121.15153 | 27978 ft | 312 kts | 281° |
| 2026-04-23 07:17 | 31.15124 | 121.12861 | 27652 ft | 314 kts | 293° |
| 2026-04-23 07:18 | 31.16406 | 121.10771 | 27343 ft | 313 kts | 299° |
| 2026-04-23 07:18 | 31.17717 | 121.08813 | 27029 ft | 307 kts | 300° |
| 2026-04-23 07:18 | 31.19037 | 121.06872 | 26640 ft | 304 kts | 300° |
| 2026-04-23 07:18 | 31.20361 | 121.04954 | 26207 ft | 302 kts | 300° |
| 2026-04-23 07:19 | 31.21681 | 121.03052 | 25795 ft | 300 kts | 300° |
| 2026-04-23 07:19 | 31.22981 | 121.01188 | 25385 ft | 297 kts | 301° |
| 2026-04-23 07:19 | 31.24427 | 120.99446 | 24945 ft | 305 kts | 312° |
| 2026-04-23 07:19 | 31.26253 | 120.98119 | 24477 ft | 317 kts | 325° |
| 2026-04-23 07:20 | 31.28417 | 120.97287 | 23869 ft | 336 kts | 340° |
| 2026-04-23 07:20 | 31.30797 | 120.97105 | 23282 ft | 355 kts | 355° |
| 2026-04-23 07:20 | 31.33292 | 120.97699 | 22695 ft | 374 kts | 13° |
| 2026-04-23 07:20 | 31.35625 | 120.99142 | 22120 ft | 390 kts | 31° |
| 2026-04-23 07:21 | 31.37561 | 121.01399 | 21549 ft | 403 kts | 51° |
| 2026-04-23 07:21 | 31.38846 | 121.04294 | 20976 ft | 409 kts | 72° |
| 2026-04-23 07:21 | 31.39311 | 121.07582 | 20387 ft | 410 kts | 92° |
| 2026-04-23 07:21 | 31.38887 | 121.10836 | 19798 ft | 406 kts | 112° |
| 2026-04-23 07:22 | 31.37663 | 121.13730 | 19200 ft | 398 kts | 131° |
| 2026-04-23 07:22 | 31.35926 | 121.16214 | 18599 ft | 395 kts | 136° |
| 2026-04-23 07:22 | 31.34098 | 121.18642 | 18009 ft | 398 kts | 136° |
| 2026-04-23 07:22 | 31.32292 | 121.21092 | 17371 ft | 400 kts | 135° |
| 2026-04-23 07:23 | 31.30503 | 121.23582 | 16786 ft | 402 kts | 134° |
| 2026-04-23 07:23 | 31.28684 | 121.26054 | 16211 ft | 400 kts | 139° |
| 2026-04-23 07:23 | 31.26427 | 121.27842 | 15607 ft | 389 kts | 161° |
| 2026-04-23 07:23 | 31.23864 | 121.28640 | 14990 ft | 379 kts | 178° |
| 2026-04-23 07:24 | 31.21285 | 121.28535 | 14394 ft | 370 kts | 194° |
| 2026-04-23 07:24 | 31.18870 | 121.27610 | 13792 ft | 364 kts | 209° |
| 2026-04-23 07:24 | 31.16792 | 121.25974 | 13193 ft | 359 kts | 224° |
| 2026-04-23 07:24 | 31.15199 | 121.23785 | 12594 ft | 356 kts | 239° |
| 2026-04-23 07:25 | 31.14167 | 121.21175 | 12013 ft | 355 kts | 253° |
| 2026-04-23 07:25 | 31.13773 | 121.18353 | 11388 ft | 354 kts | 269° |
| 2026-04-23 07:25 | 31.14035 | 121.15540 | 10787 ft | 354 kts | 284° |
| 2026-04-23 07:25 | 31.14951 | 121.12857 | 10226 ft | 355 kts | 299° |
| 2026-04-23 07:26 | 31.16393 | 121.10522 | 9626 ft | 355 kts | 308° |
| 2026-04-23 07:26 | 31.18114 | 121.08482 | 8993 ft | 356 kts | 325° |
| 2026-04-23 07:26 | 31.20368 | 121.07465 | 8509 ft | 344 kts | 353° |
| 2026-04-23 07:26 | 31.22656 | 121.07750 | 8058 ft | 324 kts | 21° |
| 2026-04-23 07:27 | 31.24419 | 121.09199 | 7675 ft | 305 kts | 51° |
| 2026-04-23 07:27 | 31.25235 | 121.11373 | 7369 ft | 288 kts | 82° |
| 2026-04-23 07:27 | 31.24929 | 121.13590 | 7098 ft | 279 kts | 113° |
| 2026-04-23 07:27 | 31.23929 | 121.15531 | 6881 ft | 280 kts | 121° |
| 2026-04-23 07:28 | 31.22796 | 121.17387 | 6594 ft | 281 kts | 124° |
| 2026-04-23 07:28 | 31.21501 | 121.19102 | 6272 ft | 281 kts | 132° |
| 2026-04-23 07:28 | 31.20030 | 121.20580 | 5957 ft | 281 kts | 140° |
| 2026-04-23 07:28 | 31.18383 | 121.21766 | 5736 ft | 279 kts | 150° |
| 2026-04-23 07:29 | 31.16553 | 121.22627 | 5301 ft | 285 kts | 160° |
| 2026-04-23 07:29 | 31.14595 | 121.23092 | 4919 ft | 289 kts | 172° |
| 2026-04-23 07:29 | 31.12606 | 121.23226 | 4638 ft | 287 kts | 175° |
| 2026-04-23 07:29 | 31.10590 | 121.23301 | 4298 ft | 286 kts | 176° |
| 2026-04-23 07:30 | 31.08637 | 121.23377 | 4087 ft | 280 kts | 175° |
| 2026-04-23 07:30 | 31.06714 | 121.23464 | 3896 ft | 274 kts | 175° |
| 2026-04-23 07:30 | 31.04811 | 121.23561 | 3711 ft | 268 kts | 175° |
| 2026-04-23 07:30 | 31.02981 | 121.23663 | 3538 ft | 262 kts | 173° |
| 2026-04-23 07:31 | 31.01259 | 121.24204 | 3308 ft | 249 kts | 141° |
| 2026-04-23 07:31 | 31.00247 | 121.25684 | 3127 ft | 228 kts | 101° |
| 2026-04-23 07:31 | 31.00291 | 121.27405 | 3018 ft | 207 kts | 67° |
| 2026-04-23 07:31 | 31.00779 | 121.28913 | 2974 ft | 188 kts | 69° |
| 2026-04-23 07:32 | 31.01093 | 121.30335 | 2757 ft | 176 kts | 73° |
| 2026-04-23 07:32 | 31.01293 | 121.31712 | 2386 ft | 173 kts | 77° |
| 2026-04-23 07:32 | 31.01427 | 121.33073 | 2126 ft | 165 kts | 79° |
| 2026-04-23 07:32 | 31.01739 | 121.34256 | 1966 ft | 144 kts | 44° |
| 2026-04-23 07:33 | 31.02629 | 121.34722 | 1999 ft | 146 kts | 4° |
| 2026-04-23 07:33 | 31.03656 | 121.34655 | 2010 ft | 146 kts | 355° |
| 2026-04-23 07:33 | 31.04664 | 121.34521 | 2022 ft | 146 kts | 356° |
| 2026-04-23 07:33 | 31.05680 | 121.34413 | 1997 ft | 146 kts | 358° |
| 2026-04-23 07:34 | 31.06699 | 121.34332 | 1988 ft | 146 kts | 359° |
| 2026-04-23 07:34 | 31.07719 | 121.34267 | 1983 ft | 146 kts | 359° |
| 2026-04-23 07:34 | 31.08751 | 121.34211 | 1887 ft | 147 kts | 359° |
| 2026-04-23 07:34 | 31.09770 | 121.34158 | 1697 ft | 146 kts | 359° |
| 2026-04-23 07:35 | 31.10785 | 121.34106 | 1502 ft | 146 kts | 358° |
| 2026-04-23 07:35 | 31.11797 | 121.34053 | 1308 ft | 145 kts | 358° |
| 2026-04-23 07:35 | 31.12807 | 121.33998 | 1114 ft | 145 kts | 359° |
| 2026-04-23 07:35 | 31.13821 | 121.33945 | 922 ft | 144 kts | 358° |
| 2026-04-23 07:36 | 31.14817 | 121.33892 | 728 ft | 144 kts | 358° |
| 2026-04-23 07:36 | 31.15819 | 121.33843 | 519 ft | 143 kts | 359° |
| 2026-04-23 07:36 | 31.16827 | 121.33781 | 336 ft | 142 kts | 359° |
| 2026-04-23 07:36 | 31.17796 | 121.33730 | 158 ft | 139 kts | 359° |
| 2026-04-23 07:37 | 31.18745 | 121.33693 | 34 ft | 127 kts | 359° |
| 2026-04-23 07:37 | 31.19549 | 121.33638 | 15 ft | 103 kts | 4° |
| 2026-04-23 07:37 | 31.20152 | 121.33602 | 15 ft | 65 kts | 2° |
| 2026-04-23 07:37 | 31.20464 | 121.33582 | 15 ft | 31 kts | 6° |
| 2026-04-23 07:38 | 31.20612 | 121.33530 | 15 ft | 11 kts | 336° |
| 2026-04-23 07:38 | 31.20717 | 121.33463 | 15 ft | 21 kts | 317° |
| 2026-04-23 07:38 | 31.20704 | 121.33416 | 15 ft | 6 kts | 205° |
| 2026-04-23 07:38 | 31.20645 | 121.33398 | 15 ft | 7 kts | 188° |
| 2026-04-23 07:39 | 31.20586 | 121.33395 | 15 ft | 9 kts | 176° |
| 2026-04-23 07:39 | 31.20516 | 121.33400 | 15 ft | 10 kts | 176° |
| 2026-04-23 07:39 | 31.20436 | 121.33405 | 15 ft | 12 kts | 176° |
| 2026-04-23 07:39 | 31.20348 | 121.33411 | 15 ft | 13 kts | 176° |
| 2026-04-23 07:40 | 31.20253 | 121.33417 | 15 ft | 14 kts | 178° |
| 2026-04-23 07:40 | 31.20151 | 121.33421 | 15 ft | 15 kts | 178° |
| 2026-04-23 07:40 | 31.20043 | 121.33427 | 15 ft | 15 kts | 176° |
| 2026-04-23 07:40 | 31.19931 | 121.33435 | 15 ft | 16 kts | 176° |
| 2026-04-23 07:41 | 31.19870 | 121.33435 | 15 ft | 8 kts | 184° |
| 2026-04-23 07:41 | 31.19832 | 121.33394 | 15 ft | 8 kts | 251° |
| 2026-04-23 07:41 | 31.19821 | 121.33324 | 15 ft | 9 kts | 263° |
| 2026-04-23 07:41 | 31.19817 | 121.33249 | 15 ft | 9 kts | 253° |
| 2026-04-23 07:42 | 31.19815 | 121.33169 | 15 ft | 10 kts | 266° |
| 2026-04-23 07:42 | 31.19809 | 121.33086 | 15 ft | 9 kts | 234° |
| 2026-04-23 07:42 | 31.19753 | 121.33029 | 15 ft | 10 kts | 218° |
| 2026-04-23 07:42 | 31.19727 | 121.32956 | 15 ft | 9 kts | 264° |
| 2026-04-23 07:43 | 31.19726 | 121.32930 | 15 ft | 3 kts | 265° |
| 2026-04-23 07:43 | 31.19723 | 121.32893 | 15 ft | 5 kts | 265° |
| 2026-04-23 07:43 | 31.19721 | 121.32841 | 15 ft | 7 kts | 268° |
| 2026-04-23 07:43 | 31.19719 | 121.32775 | 15 ft | 8 kts | 268° |
| 2026-04-23 07:44 | 31.19722 | 121.32704 | 15 ft | 6 kts | 303° |
| 2026-04-23 07:44 | 31.19766 | 121.32693 | 15 ft | 7 kts | 355° |
| 2026-04-23 07:44 | 31.19799 | 121.32690 | 15 ft | 0 kts | 358° |
| 2026-04-23 07:45 | 31.19803 | 121.32690 | 15 ft | 1 kts | 358° |
| 2026-04-23 07:45 | 31.19812 | 121.32689 | 15 ft | 0 kts | 358° |